sensor_id;sensor_type;location;lat;lon;timestamp;temperature;humidity
31799;DHT22;18374;51.136;3.502;2022-12-08T00:01:32;3.40;99.90
31799;DHT22;18374;51.136;3.502;2022-12-08T00:04:02;3.50;99.90
31799;DHT22;18374;51.136;3.502;2022-12-08T00:06:42;3.40;99.90
31799;DHT22;18374;51.136;3.502;2022-12-08T00:09:37;3.40;99.90
31799;DHT22;18374;51.136;3.502;2022-12-08T00:12:08;3.50;99.90
31799;DHT22;18374;51.136;3.502;2022-12-08T00:14:45;3.50;99.90
31799;DHT22;18374;51.136;3.502;2022-12-08T00:17:15;3.50;99.90
31799;DHT22;18374;51.136;3.502;2022-12-08T00:19:43;3.60;99.90
31799;DHT22;18374;51.136;3.502;2022-12-08T00:22:12;3.60;99.90
31799;DHT22;18374;51.136;3.502;2022-12-08T00:24:42;3.70;99.90
31799;DHT22;18374;51.136;3.502;2022-12-08T00:27:14;3.70;99.90
31799;DHT22;18374;51.136;3.502;2022-12-08T00:29:43;3.70;99.90
31799;DHT22;18374;51.136;3.502;2022-12-08T00:32:11;3.70;99.90
31799;DHT22;18374;51.136;3.502;2022-12-08T00:34:40;3.80;99.90
31799;DHT22;18374;51.136;3.502;2022-12-08T00:37:08;3.80;99.90
31799;DHT22;18374;51.136;3.502;2022-12-08T00:39:36;3.80;99.90
31799;DHT22;18374;51.136;3.502;2022-12-08T00:42:03;3.70;99.90
31799;DHT22;18374;51.136;3.502;2022-12-08T00:44:41;3.70;99.90
31799;DHT22;18374;51.136;3.502;2022-12-08T00:47:12;3.80;99.90
31799;DHT22;18374;51.136;3.502;2022-12-08T00:49:40;3.70;99.90
31799;DHT22;18374;51.136;3.502;2022-12-08T00:52:08;3.70;99.90
31799;DHT22;18374;51.136;3.502;2022-12-08T00:54:36;3.80;99.90
31799;DHT22;18374;51.136;3.502;2022-12-08T00:57:04;3.80;99.90
31799;DHT22;18374;51.136;3.502;2022-12-08T00:59:31;3.80;99.90
31799;DHT22;18374;51.136;3.502;2022-12-08T01:01:59;3.80;99.90
31799;DHT22;18374;51.136;3.502;2022-12-08T01:04:27;3.70;99.90
31799;DHT22;18374;51.136;3.502;2022-12-08T01:06:54;3.70;99.90
31799;DHT22;18374;51.136;3.502;2022-12-08T01:09:22;3.70;99.90
31799;DHT22;18374;51.136;3.502;2022-12-08T01:11:50;3.60;99.90
31799;DHT22;18374;51.136;3.502;2022-12-08T01:14:17;3.60;99.90
31799;DHT22;18374;51.136;3.502;2022-12-08T01:16:45;3.70;99.90
31799;DHT22;18374;51.136;3.502;2022-12-08T01:19:14;3.50;99.90
31799;DHT22;18374;51.136;3.502;2022-12-08T01:21:44;3.50;99.90
31799;DHT22;18374;51.136;3.502;2022-12-08T01:24:18;3.40;99.90
31799;DHT22;18374;51.136;3.502;2022-12-08T01:26:47;3.40;99.90
31799;DHT22;18374;51.136;3.502;2022-12-08T01:29:16;3.30;99.90
31799;DHT22;18374;51.136;3.502;2022-12-08T01:31:44;3.20;99.90
31799;DHT22;18374;51.136;3.502;2022-12-08T01:34:12;3.30;99.90
31799;DHT22;18374;51.136;3.502;2022-12-08T01:36:40;3.30;99.90
31799;DHT22;18374;51.136;3.502;2022-12-08T01:39:15;3.30;99.90
31799;DHT22;18374;51.136;3.502;2022-12-08T01:41:45;3.30;99.90
31799;DHT22;18374;51.136;3.502;2022-12-08T01:46:45;3.40;99.90
31799;DHT22;18374;51.136;3.502;2022-12-08T01:49:22;3.40;99.90
31799;DHT22;18374;51.136;3.502;2022-12-08T01:54:28;3.40;99.90
31799;DHT22;18374;51.136;3.502;2022-12-08T01:57:05;3.30;99.90
31799;DHT22;18374;51.136;3.502;2022-12-08T01:59:39;3.40;99.90
31799;DHT22;18374;51.136;3.502;2022-12-08T02:02:09;3.40;99.90
31799;DHT22;18374;51.136;3.502;2022-12-08T02:04:38;3.50;99.90
31799;DHT22;18374;51.136;3.502;2022-12-08T02:07:07;3.50;99.90
31799;DHT22;18374;51.136;3.502;2022-12-08T02:09:36;3.50;99.90
31799;DHT22;18374;51.136;3.502;2022-12-08T02:12:05;3.50;99.90
31799;DHT22;18374;51.136;3.502;2022-12-08T02:14:34;3.50;99.90
31799;DHT22;18374;51.136;3.502;2022-12-08T02:20:23;3.50;99.90
31799;DHT22;18374;51.136;3.502;2022-12-08T02:35:29;3.70;99.90
31799;DHT22;18374;51.136;3.502;2022-12-08T02:38:27;3.80;99.90
31799;DHT22;18374;51.136;3.502;2022-12-08T02:44:11;3.90;99.90
31799;DHT22;18374;51.136;3.502;2022-12-08T02:46:56;3.80;99.90
31799;DHT22;18374;51.136;3.502;2022-12-08T02:49:31;3.80;99.90
31799;DHT22;18374;51.136;3.502;2022-12-08T02:54:45;3.80;99.90
31799;DHT22;18374;51.136;3.502;2022-12-08T02:57:50;3.80;99.90
31799;DHT22;18374;51.136;3.502;2022-12-08T03:00:16;3.80;99.90
31799;DHT22;18374;51.136;3.502;2022-12-08T03:05:52;3.90;99.90
31799;DHT22;18374;51.136;3.502;2022-12-08T03:08:51;3.90;99.90
31799;DHT22;18374;51.136;3.502;2022-12-08T03:11:55;3.90;99.90
31799;DHT22;18374;51.136;3.502;2022-12-08T03:14:29;3.90;99.90
31799;DHT22;18374;51.136;3.502;2022-12-08T03:16:58;3.80;99.90
31799;DHT22;18374;51.136;3.502;2022-12-08T03:19:31;3.80;99.90
31799;DHT22;18374;51.136;3.502;2022-12-08T03:22:02;3.80;99.90
31799;DHT22;18374;51.136;3.502;2022-12-08T03:24:35;3.70;99.90
31799;DHT22;18374;51.136;3.502;2022-12-08T03:27:20;3.70;99.90
31799;DHT22;18374;51.136;3.502;2022-12-08T03:29:51;3.70;99.90
31799;DHT22;18374;51.136;3.502;2022-12-08T03:32:39;3.60;99.90
31799;DHT22;18374;51.136;3.502;2022-12-08T03:35:24;3.60;99.90
31799;DHT22;18374;51.136;3.502;2022-12-08T03:38:08;3.50;99.90
31799;DHT22;18374;51.136;3.502;2022-12-08T03:40:38;3.40;99.90
31799;DHT22;18374;51.136;3.502;2022-12-08T03:43:06;3.40;99.90
31799;DHT22;18374;51.136;3.502;2022-12-08T03:45:34;3.40;99.90
31799;DHT22;18374;51.136;3.502;2022-12-08T03:48:02;3.40;99.90
31799;DHT22;18374;51.136;3.502;2022-12-08T03:50:29;3.30;99.90
31799;DHT22;18374;51.136;3.502;2022-12-08T03:52:57;3.40;99.90
31799;DHT22;18374;51.136;3.502;2022-12-08T03:55:25;3.40;99.90
31799;DHT22;18374;51.136;3.502;2022-12-08T03:57:52;3.40;99.90
31799;DHT22;18374;51.136;3.502;2022-12-08T04:00:20;3.40;99.90
31799;DHT22;18374;51.136;3.502;2022-12-08T04:02:48;3.50;99.90
31799;DHT22;18374;51.136;3.502;2022-12-08T04:05:16;3.40;99.90
31799;DHT22;18374;51.136;3.502;2022-12-08T04:07:43;3.50;99.90
31799;DHT22;18374;51.136;3.502;2022-12-08T04:10:11;3.50;99.90
31799;DHT22;18374;51.136;3.502;2022-12-08T04:12:39;3.50;99.90
31799;DHT22;18374;51.136;3.502;2022-12-08T04:15:07;3.50;99.90
31799;DHT22;18374;51.136;3.502;2022-12-08T04:17:35;3.50;99.90
31799;DHT22;18374;51.136;3.502;2022-12-08T04:20:03;3.50;99.90
31799;DHT22;18374;51.136;3.502;2022-12-08T04:22:32;3.60;99.90
31799;DHT22;18374;51.136;3.502;2022-12-08T04:25:00;3.60;99.90
31799;DHT22;18374;51.136;3.502;2022-12-08T04:27:28;3.60;99.90
31799;DHT22;18374;51.136;3.502;2022-12-08T04:29:55;3.60;99.90
31799;DHT22;18374;51.136;3.502;2022-12-08T04:32:23;3.70;99.90
31799;DHT22;18374;51.136;3.502;2022-12-08T04:34:51;3.60;99.90
31799;DHT22;18374;51.136;3.502;2022-12-08T04:37:18;3.60;99.90
31799;DHT22;18374;51.136;3.502;2022-12-08T04:39:46;3.60;99.90
31799;DHT22;18374;51.136;3.502;2022-12-08T04:42:14;3.50;99.90
31799;DHT22;18374;51.136;3.502;2022-12-08T04:44:41;3.50;99.90
31799;DHT22;18374;51.136;3.502;2022-12-08T04:47:09;3.50;99.90
31799;DHT22;18374;51.136;3.502;2022-12-08T04:49:37;3.40;99.90
31799;DHT22;18374;51.136;3.502;2022-12-08T04:52:04;3.40;99.90
31799;DHT22;18374;51.136;3.502;2022-12-08T04:54:32;3.40;99.90
31799;DHT22;18374;51.136;3.502;2022-12-08T04:57:00;3.40;99.90
31799;DHT22;18374;51.136;3.502;2022-12-08T04:59:28;3.40;99.90
31799;DHT22;18374;51.136;3.502;2022-12-08T05:01:56;3.40;99.90
31799;DHT22;18374;51.136;3.502;2022-12-08T05:04:23;3.50;99.90
31799;DHT22;18374;51.136;3.502;2022-12-08T05:06:51;3.40;99.90
31799;DHT22;18374;51.136;3.502;2022-12-08T05:09:19;3.30;99.90
31799;DHT22;18374;51.136;3.502;2022-12-08T05:11:46;3.40;99.90
31799;DHT22;18374;51.136;3.502;2022-12-08T05:14:17;3.40;99.90
31799;DHT22;18374;51.136;3.502;2022-12-08T05:16:45;3.40;99.90
31799;DHT22;18374;51.136;3.502;2022-12-08T05:19:14;3.40;99.90
31799;DHT22;18374;51.136;3.502;2022-12-08T05:21:42;3.30;99.90
31799;DHT22;18374;51.136;3.502;2022-12-08T05:24:10;3.40;99.90
31799;DHT22;18374;51.136;3.502;2022-12-08T05:26:38;3.40;99.90
31799;DHT22;18374;51.136;3.502;2022-12-08T05:29:05;3.30;99.90
31799;DHT22;18374;51.136;3.502;2022-12-08T05:31:33;3.40;99.90
31799;DHT22;18374;51.136;3.502;2022-12-08T05:34:01;3.50;99.90
31799;DHT22;18374;51.136;3.502;2022-12-08T05:36:29;3.40;99.90
31799;DHT22;18374;51.136;3.502;2022-12-08T05:38:57;3.40;99.90
31799;DHT22;18374;51.136;3.502;2022-12-08T05:41:25;3.40;99.90
31799;DHT22;18374;51.136;3.502;2022-12-08T05:43:53;3.40;99.90
31799;DHT22;18374;51.136;3.502;2022-12-08T05:46:21;3.40;99.90
31799;DHT22;18374;51.136;3.502;2022-12-08T05:48:48;3.30;99.90
31799;DHT22;18374;51.136;3.502;2022-12-08T05:51:22;3.30;99.90
31799;DHT22;18374;51.136;3.502;2022-12-08T05:53:51;3.30;99.90
31799;DHT22;18374;51.136;3.502;2022-12-08T05:56:19;3.30;99.90
31799;DHT22;18374;51.136;3.502;2022-12-08T05:58:48;3.20;99.90
31799;DHT22;18374;51.136;3.502;2022-12-08T06:01:24;3.10;99.90
31799;DHT22;18374;51.136;3.502;2022-12-08T06:03:52;3.10;99.90
31799;DHT22;18374;51.136;3.502;2022-12-08T06:06:20;3.10;99.90
31799;DHT22;18374;51.136;3.502;2022-12-08T06:08:48;3.10;99.90
31799;DHT22;18374;51.136;3.502;2022-12-08T06:11:30;3.20;99.90
31799;DHT22;18374;51.136;3.502;2022-12-08T06:13:58;3.30;99.90
31799;DHT22;18374;51.136;3.502;2022-12-08T06:16:27;3.20;99.90
31799;DHT22;18374;51.136;3.502;2022-12-08T06:18:55;3.20;99.90
31799;DHT22;18374;51.136;3.502;2022-12-08T06:21:23;3.20;99.90
31799;DHT22;18374;51.136;3.502;2022-12-08T06:23:52;3.20;99.90
31799;DHT22;18374;51.136;3.502;2022-12-08T06:26:21;3.30;99.90
31799;DHT22;18374;51.136;3.502;2022-12-08T06:28:49;3.20;99.90
31799;DHT22;18374;51.136;3.502;2022-12-08T06:31:24;3.30;99.90
31799;DHT22;18374;51.136;3.502;2022-12-08T06:33:53;3.30;99.90
31799;DHT22;18374;51.136;3.502;2022-12-08T06:36:24;3.30;99.90
31799;DHT22;18374;51.136;3.502;2022-12-08T06:38:55;3.30;99.90
31799;DHT22;18374;51.136;3.502;2022-12-08T06:41:23;3.30;99.90
31799;DHT22;18374;51.136;3.502;2022-12-08T06:43:51;3.20;99.90
31799;DHT22;18374;51.136;3.502;2022-12-08T06:46:18;3.30;99.90
31799;DHT22;18374;51.136;3.502;2022-12-08T06:48:47;3.30;99.90
31799;DHT22;18374;51.136;3.502;2022-12-08T06:51:18;3.30;99.90
31799;DHT22;18374;51.136;3.502;2022-12-08T06:53:47;3.30;99.90
31799;DHT22;18374;51.136;3.502;2022-12-08T06:56:15;3.30;99.90
31799;DHT22;18374;51.136;3.502;2022-12-08T06:58:46;3.30;99.90
31799;DHT22;18374;51.136;3.502;2022-12-08T07:01:19;3.30;99.90
31799;DHT22;18374;51.136;3.502;2022-12-08T07:03:47;3.30;99.90
31799;DHT22;18374;51.136;3.502;2022-12-08T07:06:23;3.20;99.90
31799;DHT22;18374;51.136;3.502;2022-12-08T07:08:52;3.20;99.90
31799;DHT22;18374;51.136;3.502;2022-12-08T07:11:19;3.20;99.90
31799;DHT22;18374;51.136;3.502;2022-12-08T07:13:48;3.30;99.90
31799;DHT22;18374;51.136;3.502;2022-12-08T07:16:17;3.20;99.90
31799;DHT22;18374;51.136;3.502;2022-12-08T07:18:45;3.30;99.90
31799;DHT22;18374;51.136;3.502;2022-12-08T07:21:13;3.30;99.90
31799;DHT22;18374;51.136;3.502;2022-12-08T07:23:44;3.30;99.90
31799;DHT22;18374;51.136;3.502;2022-12-08T07:26:13;3.30;99.90
31799;DHT22;18374;51.136;3.502;2022-12-08T07:28:41;3.20;99.90
31799;DHT22;18374;51.136;3.502;2022-12-08T07:31:18;3.20;99.90
31799;DHT22;18374;51.136;3.502;2022-12-08T07:33:47;3.20;99.90
31799;DHT22;18374;51.136;3.502;2022-12-08T07:36:16;3.20;99.90
31799;DHT22;18374;51.136;3.502;2022-12-08T07:38:44;3.20;99.90
31799;DHT22;18374;51.136;3.502;2022-12-08T07:41:14;3.20;99.90
31799;DHT22;18374;51.136;3.502;2022-12-08T07:43:43;3.20;99.90
31799;DHT22;18374;51.136;3.502;2022-12-08T07:46:15;3.20;99.90
31799;DHT22;18374;51.136;3.502;2022-12-08T07:48:45;3.20;99.90
31799;DHT22;18374;51.136;3.502;2022-12-08T07:51:15;3.20;99.90
31799;DHT22;18374;51.136;3.502;2022-12-08T07:53:44;3.20;99.90
31799;DHT22;18374;51.136;3.502;2022-12-08T07:56:20;3.30;99.90
31799;DHT22;18374;51.136;3.502;2022-12-08T07:58:48;3.30;99.90
31799;DHT22;18374;51.136;3.502;2022-12-08T08:01:24;3.30;99.90
31799;DHT22;18374;51.136;3.502;2022-12-08T08:03:58;3.30;99.90
31799;DHT22;18374;51.136;3.502;2022-12-08T08:06:32;3.30;99.90
31799;DHT22;18374;51.136;3.502;2022-12-08T08:09:01;3.30;99.90
31799;DHT22;18374;51.136;3.502;2022-12-08T08:11:28;3.20;99.90
31799;DHT22;18374;51.136;3.502;2022-12-08T08:13:57;3.20;99.90
31799;DHT22;18374;51.136;3.502;2022-12-08T08:16:24;3.20;99.90
31799;DHT22;18374;51.136;3.502;2022-12-08T08:18:52;3.20;99.90
31799;DHT22;18374;51.136;3.502;2022-12-08T08:21:21;3.20;99.90
31799;DHT22;18374;51.136;3.502;2022-12-08T08:24:08;3.20;99.90
31799;DHT22;18374;51.136;3.502;2022-12-08T08:26:36;3.20;99.90
31799;DHT22;18374;51.136;3.502;2022-12-08T08:29:04;3.20;99.90
31799;DHT22;18374;51.136;3.502;2022-12-08T08:31:32;3.20;99.90
31799;DHT22;18374;51.136;3.502;2022-12-08T08:34:02;3.30;99.90
31799;DHT22;18374;51.136;3.502;2022-12-08T08:36:33;3.30;99.90
31799;DHT22;18374;51.136;3.502;2022-12-08T08:39:01;3.30;99.90
31799;DHT22;18374;51.136;3.502;2022-12-08T08:41:29;3.30;99.90
31799;DHT22;18374;51.136;3.502;2022-12-08T08:43:57;3.30;99.90
31799;DHT22;18374;51.136;3.502;2022-12-08T08:46:25;3.40;99.90
31799;DHT22;18374;51.136;3.502;2022-12-08T08:48:53;3.40;99.90
31799;DHT22;18374;51.136;3.502;2022-12-08T08:51:21;3.40;99.90
31799;DHT22;18374;51.136;3.502;2022-12-08T08:53:50;3.50;99.90
31799;DHT22;18374;51.136;3.502;2022-12-08T08:56:19;3.50;99.90
31799;DHT22;18374;51.136;3.502;2022-12-08T08:58:51;3.50;99.90
31799;DHT22;18374;51.136;3.502;2022-12-08T09:01:24;3.60;99.90
31799;DHT22;18374;51.136;3.502;2022-12-08T09:03:54;3.60;99.90
31799;DHT22;18374;51.136;3.502;2022-12-08T09:06:23;3.60;99.90
31799;DHT22;18374;51.136;3.502;2022-12-08T09:08:51;3.60;99.90
31799;DHT22;18374;51.136;3.502;2022-12-08T09:11:19;3.70;99.90
31799;DHT22;18374;51.136;3.502;2022-12-08T09:13:48;3.60;99.90
31799;DHT22;18374;51.136;3.502;2022-12-08T09:16:17;3.70;99.90
31799;DHT22;18374;51.136;3.502;2022-12-08T09:18:45;3.70;99.90
31799;DHT22;18374;51.136;3.502;2022-12-08T09:21:17;3.70;99.90
31799;DHT22;18374;51.136;3.502;2022-12-08T09:23:50;3.70;99.90
31799;DHT22;18374;51.136;3.502;2022-12-08T09:26:20;3.70;99.90
31799;DHT22;18374;51.136;3.502;2022-12-08T09:28:49;3.80;99.90
31799;DHT22;18374;51.136;3.502;2022-12-08T09:31:19;3.80;99.90
31799;DHT22;18374;51.136;3.502;2022-12-08T09:33:49;3.80;99.90
31799;DHT22;18374;51.136;3.502;2022-12-08T09:36:21;3.80;99.90
31799;DHT22;18374;51.136;3.502;2022-12-08T09:38:49;3.80;99.90
31799;DHT22;18374;51.136;3.502;2022-12-08T09:41:43;3.90;99.90
31799;DHT22;18374;51.136;3.502;2022-12-08T09:50:17;3.80;99.90
31799;DHT22;18374;51.136;3.502;2022-12-08T09:53:02;3.80;99.90
31799;DHT22;18374;51.136;3.502;2022-12-08T09:55:40;3.80;99.90
31799;DHT22;18374;51.136;3.502;2022-12-08T09:58:43;3.80;99.90
31799;DHT22;18374;51.136;3.502;2022-12-08T10:01:10;3.80;99.90
31799;DHT22;18374;51.136;3.502;2022-12-08T10:03:39;4.00;99.90
31799;DHT22;18374;51.136;3.502;2022-12-08T10:08:49;4.20;99.90
31799;DHT22;18374;51.136;3.502;2022-12-08T10:11:35;4.30;99.90
31799;DHT22;18374;51.136;3.502;2022-12-08T10:17:26;4.60;99.90
31799;DHT22;18374;51.136;3.502;2022-12-08T10:20:19;4.70;99.90
31799;DHT22;18374;51.136;3.502;2022-12-08T10:26:05;4.90;99.90
31799;DHT22;18374;51.136;3.502;2022-12-08T10:28:37;5.00;99.90
31799;DHT22;18374;51.136;3.502;2022-12-08T10:31:17;5.10;99.90
31799;DHT22;18374;51.136;3.502;2022-12-08T10:34:08;5.20;99.90
31799;DHT22;18374;51.136;3.502;2022-12-08T10:36:52;5.20;99.90
31799;DHT22;18374;51.136;3.502;2022-12-08T10:39:36;5.20;99.90
31799;DHT22;18374;51.136;3.502;2022-12-08T10:44:57;5.30;99.90
31799;DHT22;18374;51.136;3.502;2022-12-08T10:47:28;5.40;99.90
31799;DHT22;18374;51.136;3.502;2022-12-08T10:50:15;5.40;99.90
31799;DHT22;18374;51.136;3.502;2022-12-08T10:52:56;5.40;99.90
31799;DHT22;18374;51.136;3.502;2022-12-08T10:55:27;5.50;99.90
31799;DHT22;18374;51.136;3.502;2022-12-08T10:57:56;5.50;99.90
31799;DHT22;18374;51.136;3.502;2022-12-08T11:00:26;5.50;99.90
31799;DHT22;18374;51.136;3.502;2022-12-08T11:05:32;5.60;99.90
31799;DHT22;18374;51.136;3.502;2022-12-08T11:08:01;5.70;99.90
31799;DHT22;18374;51.136;3.502;2022-12-08T11:10:36;5.80;99.90
31799;DHT22;18374;51.136;3.502;2022-12-08T11:13:21;5.90;99.90
31799;DHT22;18374;51.136;3.502;2022-12-08T11:15:53;6.00;99.90
31799;DHT22;18374;51.136;3.502;2022-12-08T11:18:30;6.00;99.90
31799;DHT22;18374;51.136;3.502;2022-12-08T11:21:13;5.80;99.90
31799;DHT22;18374;51.136;3.502;2022-12-08T11:23:49;5.60;99.90
31799;DHT22;18374;51.136;3.502;2022-12-08T11:26:28;5.40;99.90
31799;DHT22;18374;51.136;3.502;2022-12-08T11:28:57;5.30;99.90
31799;DHT22;18374;51.136;3.502;2022-12-08T11:31:40;5.40;99.90
31799;DHT22;18374;51.136;3.502;2022-12-08T11:34:30;5.40;99.90
31799;DHT22;18374;51.136;3.502;2022-12-08T11:37:04;5.50;99.90
31799;DHT22;18374;51.136;3.502;2022-12-08T11:39:35;5.50;99.90
31799;DHT22;18374;51.136;3.502;2022-12-08T11:42:12;5.60;99.90
31799;DHT22;18374;51.136;3.502;2022-12-08T11:44:53;5.60;99.90
31799;DHT22;18374;51.136;3.502;2022-12-08T11:47:29;5.60;99.90
31799;DHT22;18374;51.136;3.502;2022-12-08T11:52:49;5.70;99.90
31799;DHT22;18374;51.136;3.502;2022-12-08T11:55:44;5.80;99.90
31799;DHT22;18374;51.136;3.502;2022-12-08T11:58:40;5.90;99.90
31799;DHT22;18374;51.136;3.502;2022-12-08T12:01:23;5.70;99.90
31799;DHT22;18374;51.136;3.502;2022-12-08T12:09:43;5.50;99.90
31799;DHT22;18374;51.136;3.502;2022-12-08T12:15:45;5.40;99.90
31799;DHT22;18374;51.136;3.502;2022-12-08T12:21:03;5.00;99.90
31799;DHT22;18374;51.136;3.502;2022-12-08T12:26:24;4.20;99.90
31799;DHT22;18374;51.136;3.502;2022-12-08T12:31:38;4.00;99.90
31799;DHT22;18374;51.136;3.502;2022-12-08T12:34:31;3.90;99.90
31799;DHT22;18374;51.136;3.502;2022-12-08T12:40:05;3.80;99.90
31799;DHT22;18374;51.136;3.502;2022-12-08T12:45:28;3.70;99.90
31799;DHT22;18374;51.136;3.502;2022-12-08T12:50:47;3.50;99.90
31799;DHT22;18374;51.136;3.502;2022-12-08T12:55:59;3.00;99.90
31799;DHT22;18374;51.136;3.502;2022-12-08T13:03:48;2.70;99.90
31799;DHT22;18374;51.136;3.502;2022-12-08T13:06:34;2.80;99.90
31799;DHT22;18374;51.136;3.502;2022-12-08T13:09:04;2.90;99.90
31799;DHT22;18374;51.136;3.502;2022-12-08T13:11:51;3.00;99.90
31799;DHT22;18374;51.136;3.502;2022-12-08T13:14:32;3.10;99.90
31799;DHT22;18374;51.136;3.502;2022-12-08T13:17:08;3.30;99.90
31799;DHT22;18374;51.136;3.502;2022-12-08T13:19:39;3.50;99.90
31799;DHT22;18374;51.136;3.502;2022-12-08T13:28:22;3.60;99.90
31799;DHT22;18374;51.136;3.502;2022-12-08T13:30:59;3.60;99.90
31799;DHT22;18374;51.136;3.502;2022-12-08T13:33:39;3.60;99.90
31799;DHT22;18374;51.136;3.502;2022-12-08T13:36:17;3.60;99.90
31799;DHT22;18374;51.136;3.502;2022-12-08T13:38:53;3.70;99.90
31799;DHT22;18374;51.136;3.502;2022-12-08T13:41:42;3.80;99.90
31799;DHT22;18374;51.136;3.502;2022-12-08T13:44:28;3.80;99.90
31799;DHT22;18374;51.136;3.502;2022-12-08T13:47:29;3.80;99.90
31799;DHT22;18374;51.136;3.502;2022-12-08T13:53:18;3.80;99.90
31799;DHT22;18374;51.136;3.502;2022-12-08T13:56:11;3.90;99.90
31799;DHT22;18374;51.136;3.502;2022-12-08T13:59:24;4.00;99.90
31799;DHT22;18374;51.136;3.502;2022-12-08T14:01:57;3.90;99.90
31799;DHT22;18374;51.136;3.502;2022-12-08T14:04:27;4.00;99.90
31799;DHT22;18374;51.136;3.502;2022-12-08T14:07:15;4.00;99.90
31799;DHT22;18374;51.136;3.502;2022-12-08T14:09:44;4.00;99.90
31799;DHT22;18374;51.136;3.502;2022-12-08T14:12:25;3.90;99.90
31799;DHT22;18374;51.136;3.502;2022-12-08T14:15:02;4.00;99.90
31799;DHT22;18374;51.136;3.502;2022-12-08T14:17:32;4.00;99.90
31799;DHT22;18374;51.136;3.502;2022-12-08T14:22:39;4.00;99.90
31799;DHT22;18374;51.136;3.502;2022-12-08T14:25:13;3.90;99.90
31799;DHT22;18374;51.136;3.502;2022-12-08T14:27:41;3.90;99.90
31799;DHT22;18374;51.136;3.502;2022-12-08T14:32:46;3.80;99.90
31799;DHT22;18374;51.136;3.502;2022-12-08T14:35:26;3.80;99.90
31799;DHT22;18374;51.136;3.502;2022-12-08T14:37:56;3.80;99.90
31799;DHT22;18374;51.136;3.502;2022-12-08T14:40:42;3.80;99.90
31799;DHT22;18374;51.136;3.502;2022-12-08T14:43:17;3.70;99.90
31799;DHT22;18374;51.136;3.502;2022-12-08T14:45:48;3.60;99.90
31799;DHT22;18374;51.136;3.502;2022-12-08T14:51:15;3.50;99.90
31799;DHT22;18374;51.136;3.502;2022-12-08T14:54:04;3.30;99.90
31799;DHT22;18374;51.136;3.502;2022-12-08T14:56:53;3.20;99.90
31799;DHT22;18374;51.136;3.502;2022-12-08T14:59:44;3.20;99.90
31799;DHT22;18374;51.136;3.502;2022-12-08T15:04:58;3.20;99.90
31799;DHT22;18374;51.136;3.502;2022-12-08T15:07:32;3.20;99.90
31799;DHT22;18374;51.136;3.502;2022-12-08T15:18:38;3.10;99.90
31799;DHT22;18374;51.136;3.502;2022-12-08T15:21:09;3.10;99.90
31799;DHT22;18374;51.136;3.502;2022-12-08T15:23:44;3.10;99.90
31799;DHT22;18374;51.136;3.502;2022-12-08T15:26:20;3.10;99.90
31799;DHT22;18374;51.136;3.502;2022-12-08T15:28:49;3.00;99.90
31799;DHT22;18374;51.136;3.502;2022-12-08T15:31:18;3.00;99.90
31799;DHT22;18374;51.136;3.502;2022-12-08T15:33:47;3.00;99.90
31799;DHT22;18374;51.136;3.502;2022-12-08T15:36:15;2.90;99.90
31799;DHT22;18374;51.136;3.502;2022-12-08T15:38:43;2.90;99.90
31799;DHT22;18374;51.136;3.502;2022-12-08T15:41:12;2.90;99.90
31799;DHT22;18374;51.136;3.502;2022-12-08T15:43:44;2.90;99.90
31799;DHT22;18374;51.136;3.502;2022-12-08T15:46:13;3.00;99.90
31799;DHT22;18374;51.136;3.502;2022-12-08T15:48:45;2.90;99.90
31799;DHT22;18374;51.136;3.502;2022-12-08T15:51:13;2.90;99.90
31799;DHT22;18374;51.136;3.502;2022-12-08T15:53:40;2.80;99.90
31799;DHT22;18374;51.136;3.502;2022-12-08T15:56:08;2.70;99.90
31799;DHT22;18374;51.136;3.502;2022-12-08T15:58:54;2.80;99.90
31799;DHT22;18374;51.136;3.502;2022-12-08T16:01:24;2.70;99.90
31799;DHT22;18374;51.136;3.502;2022-12-08T16:03:52;2.70;99.90
31799;DHT22;18374;51.136;3.502;2022-12-08T16:06:42;2.60;99.90
31799;DHT22;18374;51.136;3.502;2022-12-08T16:09:39;2.60;99.90
31799;DHT22;18374;51.136;3.502;2022-12-08T16:12:23;2.60;99.90
31799;DHT22;18374;51.136;3.502;2022-12-08T16:15:34;2.60;99.90
31799;DHT22;18374;51.136;3.502;2022-12-08T16:18:27;2.60;99.90
31799;DHT22;18374;51.136;3.502;2022-12-08T16:20:58;2.60;99.90
31799;DHT22;18374;51.136;3.502;2022-12-08T16:24:04;2.50;99.90
31799;DHT22;18374;51.136;3.502;2022-12-08T16:27:32;2.60;99.90
31799;DHT22;18374;51.136;3.502;2022-12-08T16:39:23;2.50;99.90
31799;DHT22;18374;51.136;3.502;2022-12-08T16:41:50;2.40;99.90
31799;DHT22;18374;51.136;3.502;2022-12-08T16:44:39;2.30;99.90
31799;DHT22;18374;51.136;3.502;2022-12-08T16:47:26;2.10;99.90
31799;DHT22;18374;51.136;3.502;2022-12-08T16:49:54;2.00;99.90
31799;DHT22;18374;51.136;3.502;2022-12-08T16:52:29;1.90;99.90
31799;DHT22;18374;51.136;3.502;2022-12-08T16:55:01;1.80;99.90
31799;DHT22;18374;51.136;3.502;2022-12-08T16:57:31;1.70;99.90
31799;DHT22;18374;51.136;3.502;2022-12-08T16:59:58;1.80;99.90
31799;DHT22;18374;51.136;3.502;2022-12-08T17:02:30;1.80;99.90
31799;DHT22;18374;51.136;3.502;2022-12-08T17:05:00;1.80;99.90
31799;DHT22;18374;51.136;3.502;2022-12-08T17:07:29;1.70;99.90
31799;DHT22;18374;51.136;3.502;2022-12-08T17:10:05;1.70;99.90
31799;DHT22;18374;51.136;3.502;2022-12-08T17:12:46;1.60;99.90
31799;DHT22;18374;51.136;3.502;2022-12-08T17:15:21;1.60;99.90
31799;DHT22;18374;51.136;3.502;2022-12-08T17:18:19;1.70;99.90
31799;DHT22;18374;51.136;3.502;2022-12-08T17:21:01;1.70;99.90
31799;DHT22;18374;51.136;3.502;2022-12-08T17:23:41;1.80;99.90
31799;DHT22;18374;51.136;3.502;2022-12-08T17:26:09;1.80;99.90
31799;DHT22;18374;51.136;3.502;2022-12-08T17:28:38;1.80;99.90
31799;DHT22;18374;51.136;3.502;2022-12-08T17:31:25;1.80;99.90
31799;DHT22;18374;51.136;3.502;2022-12-08T17:34:01;1.80;99.90
31799;DHT22;18374;51.136;3.502;2022-12-08T17:36:31;1.80;99.90
31799;DHT22;18374;51.136;3.502;2022-12-08T17:38:59;1.80;99.90
31799;DHT22;18374;51.136;3.502;2022-12-08T17:41:28;1.80;99.90
31799;DHT22;18374;51.136;3.502;2022-12-08T17:43:56;1.70;99.90
31799;DHT22;18374;51.136;3.502;2022-12-08T17:46:24;1.70;99.90
31799;DHT22;18374;51.136;3.502;2022-12-08T17:48:53;1.70;99.90
31799;DHT22;18374;51.136;3.502;2022-12-08T17:51:20;1.70;99.90
31799;DHT22;18374;51.136;3.502;2022-12-08T17:53:48;1.70;99.90
31799;DHT22;18374;51.136;3.502;2022-12-08T17:56:19;1.60;99.90
31799;DHT22;18374;51.136;3.502;2022-12-08T17:58:47;1.50;99.90
31799;DHT22;18374;51.136;3.502;2022-12-08T18:01:22;1.50;99.90
31799;DHT22;18374;51.136;3.502;2022-12-08T18:03:50;1.70;99.90
31799;DHT22;18374;51.136;3.502;2022-12-08T18:06:18;1.80;99.90
31799;DHT22;18374;51.136;3.502;2022-12-08T18:08:46;1.90;99.90
31799;DHT22;18374;51.136;3.502;2022-12-08T18:11:18;1.90;99.90
31799;DHT22;18374;51.136;3.502;2022-12-08T18:13:48;2.00;99.90
31799;DHT22;18374;51.136;3.502;2022-12-08T18:16:18;2.00;99.90
31799;DHT22;18374;51.136;3.502;2022-12-08T18:18:47;2.10;99.90
31799;DHT22;18374;51.136;3.502;2022-12-08T18:21:15;1.80;99.90
31799;DHT22;18374;51.136;3.502;2022-12-08T18:23:50;1.80;99.90
31799;DHT22;18374;51.136;3.502;2022-12-08T18:26:18;1.80;99.90
31799;DHT22;18374;51.136;3.502;2022-12-08T18:28:46;1.90;99.90